sensor_id;sensor_type;location;lat;lon;timestamp;P1;durP1;ratioP1;P2;durP2;ratioP2
71296;SDS011;59082;50.658;4.608;2022-08-16T00:00:52;3.40;;;2.53;;
71296;SDS011;59082;50.658;4.608;2022-08-16T00:03:18;3.67;;;3.28;;
71296;SDS011;59082;50.658;4.608;2022-08-16T00:05:44;3.50;;;2.50;;
71296;SDS011;59082;50.658;4.608;2022-08-16T00:08:10;3.17;;;2.58;;
71296;SDS011;59082;50.658;4.608;2022-08-16T00:10:36;3.83;;;2.40;;
71296;SDS011;59082;50.658;4.608;2022-08-16T00:13:03;3.10;;;2.80;;
71296;SDS011;59082;50.658;4.608;2022-08-16T00:15:32;3.23;;;2.90;;
71296;SDS011;59082;50.658;4.608;2022-08-16T00:18:01;4.32;;;2.40;;
71296;SDS011;59082;50.658;4.608;2022-08-16T00:20:27;3.15;;;2.80;;
71296;SDS011;59082;50.658;4.608;2022-08-16T00:22:53;2.88;;;2.53;;
71296;SDS011;59082;50.658;4.608;2022-08-16T00:25:21;3.37;;;3.07;;
71296;SDS011;59082;50.658;4.608;2022-08-16T00:27:47;2.70;;;2.50;;
71296;SDS011;59082;50.658;4.608;2022-08-16T00:30:13;3.00;;;2.67;;
71296;SDS011;59082;50.658;4.608;2022-08-16T00:32:41;2.92;;;2.42;;
71296;SDS011;59082;50.658;4.608;2022-08-16T00:35:10;2.85;;;2.55;;
71296;SDS011;59082;50.658;4.608;2022-08-16T00:37:38;3.17;;;2.45;;
71296;SDS011;59082;50.658;4.608;2022-08-16T00:40:04;4.53;;;2.80;;
71296;SDS011;59082;50.658;4.608;2022-08-16T00:42:32;2.90;;;2.60;;
71296;SDS011;59082;50.658;4.608;2022-08-16T00:45:08;4.07;;;2.73;;
71296;SDS011;59082;50.658;4.608;2022-08-16T00:47:44;4.25;;;2.60;;
71296;SDS011;59082;50.658;4.608;2022-08-16T00:50:11;3.13;;;2.83;;
71296;SDS011;59082;50.658;4.608;2022-08-16T00:52:39;2.97;;;2.65;;
71296;SDS011;59082;50.658;4.608;2022-08-16T00:55:05;3.47;;;3.10;;
71296;SDS011;59082;50.658;4.608;2022-08-16T00:57:31;2.73;;;2.50;;
71296;SDS011;59082;50.658;4.608;2022-08-16T00:59:58;2.83;;;2.50;;
71296;SDS011;59082;50.658;4.608;2022-08-16T01:02:25;3.60;;;3.10;;
71296;SDS011;59082;50.658;4.608;2022-08-16T01:04:51;3.17;;;2.45;;
71296;SDS011;59082;50.658;4.608;2022-08-16T01:07:17;2.90;;;2.47;;
71296;SDS011;59082;50.658;4.608;2022-08-16T01:09:43;6.55;;;3.22;;
71296;SDS011;59082;50.658;4.608;2022-08-16T01:12:09;3.67;;;2.73;;
71296;SDS011;59082;50.658;4.608;2022-08-16T01:14:39;2.67;;;2.25;;
71296;SDS011;59082;50.658;4.608;2022-08-16T01:17:09;3.65;;;2.72;;
71296;SDS011;59082;50.658;4.608;2022-08-16T01:19:41;3.95;;;3.15;;
71296;SDS011;59082;50.658;4.608;2022-08-16T01:24:55;6.80;;;2.80;;
71296;SDS011;59082;50.658;4.608;2022-08-16T01:27:44;3.90;;;2.80;;
71296;SDS011;59082;50.658;4.608;2022-08-16T01:30:15;3.17;;;2.88;;
71296;SDS011;59082;50.658;4.608;2022-08-16T01:32:43;3.72;;;2.58;;
71296;SDS011;59082;50.658;4.608;2022-08-16T01:35:17;4.17;;;3.07;;
71296;SDS011;59082;50.658;4.608;2022-08-16T01:37:48;4.15;;;2.90;;
71296;SDS011;59082;50.658;4.608;2022-08-16T01:40:17;3.47;;;3.15;;
71296;SDS011;59082;50.658;4.608;2022-08-16T01:42:44;4.18;;;3.03;;
71296;SDS011;59082;50.658;4.608;2022-08-16T01:45:12;3.37;;;3.03;;
71296;SDS011;59082;50.658;4.608;2022-08-16T01:47:38;2.90;;;2.70;;
71296;SDS011;59082;50.658;4.608;2022-08-16T01:50:06;4.60;;;3.75;;
71296;SDS011;59082;50.658;4.608;2022-08-16T01:52:32;4.00;;;3.35;;
71296;SDS011;59082;50.658;4.608;2022-08-16T01:54:58;6.10;;;3.30;;
71296;SDS011;59082;50.658;4.608;2022-08-16T01:57:24;3.87;;;3.47;;
71296;SDS011;59082;50.658;4.608;2022-08-16T01:59:51;3.63;;;3.22;;
71296;SDS011;59082;50.658;4.608;2022-08-16T02:02:16;4.87;;;3.03;;
71296;SDS011;59082;50.658;4.608;2022-08-16T02:04:42;3.90;;;3.50;;
71296;SDS011;59082;50.658;4.608;2022-08-16T02:07:07;4.00;;;3.60;;
71296;SDS011;59082;50.658;4.608;2022-08-16T02:09:34;5.43;;;3.27;;
71296;SDS011;59082;50.658;4.608;2022-08-16T02:12:01;4.88;;;3.92;;
71296;SDS011;59082;50.658;4.608;2022-08-16T02:14:31;4.55;;;4.15;;
71296;SDS011;59082;50.658;4.608;2022-08-16T02:16:57;5.18;;;3.78;;
71296;SDS011;59082;50.658;4.608;2022-08-16T02:19:25;6.88;;;4.68;;
71296;SDS011;59082;50.658;4.608;2022-08-16T02:21:54;4.33;;;3.80;;
71296;SDS011;59082;50.658;4.608;2022-08-16T02:24:21;4.45;;;4.07;;
71296;SDS011;59082;50.658;4.608;2022-08-16T02:26:46;6.15;;;4.32;;
71296;SDS011;59082;50.658;4.608;2022-08-16T02:29:13;4.73;;;4.10;;
71296;SDS011;59082;50.658;4.608;2022-08-16T02:31:39;4.53;;;3.90;;
71296;SDS011;59082;50.658;4.608;2022-08-16T02:34:05;5.88;;;4.07;;
71296;SDS011;59082;50.658;4.608;2022-08-16T02:36:32;5.75;;;4.55;;
71296;SDS011;59082;50.658;4.608;2022-08-16T02:38:58;8.88;;;4.80;;
71296;SDS011;59082;50.658;4.608;2022-08-16T02:41:24;5.80;;;4.37;;
71296;SDS011;59082;50.658;4.608;2022-08-16T02:43:50;7.90;;;5.78;;
71296;SDS011;59082;50.658;4.608;2022-08-16T02:46:15;7.03;;;5.20;;
71296;SDS011;59082;50.658;4.608;2022-08-16T02:48:41;5.93;;;5.13;;
71296;SDS011;59082;50.658;4.608;2022-08-16T02:51:07;6.53;;;4.80;;
71296;SDS011;59082;50.658;4.608;2022-08-16T02:53:34;6.50;;;4.57;;
71296;SDS011;59082;50.658;4.608;2022-08-16T02:56:02;5.60;;;5.10;;
71296;SDS011;59082;50.658;4.608;2022-08-16T02:58:29;8.18;;;4.93;;
71296;SDS011;59082;50.658;4.608;2022-08-16T03:00:57;5.70;;;4.80;;
71296;SDS011;59082;50.658;4.608;2022-08-16T03:03:24;9.35;;;5.20;;
71296;SDS011;59082;50.658;4.608;2022-08-16T03:05:51;6.00;;;4.90;;
71296;SDS011;59082;50.658;4.608;2022-08-16T03:08:17;5.90;;;5.30;;
71296;SDS011;59082;50.658;4.608;2022-08-16T03:10:43;6.77;;;5.10;;
71296;SDS011;59082;50.658;4.608;2022-08-16T03:13:09;5.35;;;4.85;;
71296;SDS011;59082;50.658;4.608;2022-08-16T03:15:34;8.05;;;4.82;;
71296;SDS011;59082;50.658;4.608;2022-08-16T03:18:00;8.40;;;5.33;;
71296;SDS011;59082;50.658;4.608;2022-08-16T03:20:25;7.03;;;5.17;;
71296;SDS011;59082;50.658;4.608;2022-08-16T03:22:51;9.67;;;5.90;;
71296;SDS011;59082;50.658;4.608;2022-08-16T03:25:17;5.85;;;5.22;;
71296;SDS011;59082;50.658;4.608;2022-08-16T03:27:43;6.33;;;4.80;;
71296;SDS011;59082;50.658;4.608;2022-08-16T03:30:13;6.93;;;5.07;;
71296;SDS011;59082;50.658;4.608;2022-08-16T03:32:41;5.10;;;4.60;;
71296;SDS011;59082;50.658;4.608;2022-08-16T03:35:07;6.10;;;5.35;;
71296;SDS011;59082;50.658;4.608;2022-08-16T03:37:34;6.15;;;5.10;;
71296;SDS011;59082;50.658;4.608;2022-08-16T03:40:00;6.88;;;5.47;;
71296;SDS011;59082;50.658;4.608;2022-08-16T03:42:25;8.17;;;6.00;;
71296;SDS011;59082;50.658;4.608;2022-08-16T03:44:51;7.70;;;5.47;;
71296;SDS011;59082;50.658;4.608;2022-08-16T03:47:17;11.50;;;6.40;;
71296;SDS011;59082;50.658;4.608;2022-08-16T03:49:43;8.32;;;5.53;;
71296;SDS011;59082;50.658;4.608;2022-08-16T03:52:08;6.22;;;5.63;;
71296;SDS011;59082;50.658;4.608;2022-08-16T03:54:35;6.70;;;5.47;;
71296;SDS011;59082;50.658;4.608;2022-08-16T03:57:00;9.50;;;5.90;;
71296;SDS011;59082;50.658;4.608;2022-08-16T03:59:27;7.50;;;5.85;;
71296;SDS011;59082;50.658;4.608;2022-08-16T04:01:52;6.93;;;5.83;;
71296;SDS011;59082;50.658;4.608;2022-08-16T04:04:18;9.07;;;7.03;;
71296;SDS011;59082;50.658;4.608;2022-08-16T04:06:43;7.20;;;6.50;;
71296;SDS011;59082;50.658;4.608;2022-08-16T04:09:09;9.43;;;7.07;;
71296;SDS011;59082;50.658;4.608;2022-08-16T04:11:36;9.27;;;7.00;;
71296;SDS011;59082;50.658;4.608;2022-08-16T04:14:02;9.90;;;6.83;;
71296;SDS011;59082;50.658;4.608;2022-08-16T04:16:28;8.13;;;6.53;;
71296;SDS011;59082;50.658;4.608;2022-08-16T04:18:56;8.05;;;6.72;;
71296;SDS011;59082;50.658;4.608;2022-08-16T04:21:22;8.60;;;6.37;;
71296;SDS011;59082;50.658;4.608;2022-08-16T04:23:47;8.43;;;6.57;;
71296;SDS011;59082;50.658;4.608;2022-08-16T04:26:13;9.37;;;6.07;;
71296;SDS011;59082;50.658;4.608;2022-08-16T04:28:39;10.77;;;7.40;;
71296;SDS011;59082;50.658;4.608;2022-08-16T04:31:04;8.10;;;6.90;;
71296;SDS011;59082;50.658;4.608;2022-08-16T04:33:30;15.63;;;7.30;;
71296;SDS011;59082;50.658;4.608;2022-08-16T04:35:55;9.20;;;7.57;;
71296;SDS011;59082;50.658;4.608;2022-08-16T04:38:22;9.93;;;7.57;;
71296;SDS011;59082;50.658;4.608;2022-08-16T04:40:48;9.70;;;7.20;;
71296;SDS011;59082;50.658;4.608;2022-08-16T04:43:14;10.55;;;6.53;;
71296;SDS011;59082;50.658;4.608;2022-08-16T04:45:40;9.52;;;6.90;;
71296;SDS011;59082;50.658;4.608;2022-08-16T04:48:07;8.00;;;7.20;;
71296;SDS011;59082;50.658;4.608;2022-08-16T04:50:34;8.48;;;6.55;;
71296;SDS011;59082;50.658;4.608;2022-08-16T04:53:00;8.07;;;6.95;;
71296;SDS011;59082;50.658;4.608;2022-08-16T04:55:26;8.27;;;6.88;;
71296;SDS011;59082;50.658;4.608;2022-08-16T04:57:53;9.20;;;6.87;;
71296;SDS011;59082;50.658;4.608;2022-08-16T05:00:21;11.82;;;8.13;;
71296;SDS011;59082;50.658;4.608;2022-08-16T05:02:50;8.88;;;6.70;;
71296;SDS011;59082;50.658;4.608;2022-08-16T05:05:17;10.35;;;7.57;;
71296;SDS011;59082;50.658;4.608;2022-08-16T05:07:47;8.13;;;6.80;;
71296;SDS011;59082;50.658;4.608;2022-08-16T05:10:13;10.23;;;7.23;;
71296;SDS011;59082;50.658;4.608;2022-08-16T05:12:39;8.70;;;7.70;;
71296;SDS011;59082;50.658;4.608;2022-08-16T05:15:05;9.33;;;8.00;;
71296;SDS011;59082;50.658;4.608;2022-08-16T05:17:32;11.23;;;8.07;;
71296;SDS011;59082;50.658;4.608;2022-08-16T05:19:58;9.35;;;8.40;;
71296;SDS011;59082;50.658;4.608;2022-08-16T05:22:24;8.90;;;7.63;;
71296;SDS011;59082;50.658;4.608;2022-08-16T05:24:50;8.87;;;7.23;;
71296;SDS011;59082;50.658;4.608;2022-08-16T05:27:15;8.27;;;6.60;;
71296;SDS011;59082;50.658;4.608;2022-08-16T05:29:41;11.50;;;8.40;;
71296;SDS011;59082;50.658;4.608;2022-08-16T05:32:07;9.68;;;7.80;;
71296;SDS011;59082;50.658;4.608;2022-08-16T05:34:33;9.10;;;7.75;;
71296;SDS011;59082;50.658;4.608;2022-08-16T05:36:59;10.00;;;8.80;;
71296;SDS011;59082;50.658;4.608;2022-08-16T05:39:25;8.88;;;7.97;;
71296;SDS011;59082;50.658;4.608;2022-08-16T05:41:51;8.80;;;7.27;;
71296;SDS011;59082;50.658;4.608;2022-08-16T05:44:18;8.77;;;7.55;;
71296;SDS011;59082;50.658;4.608;2022-08-16T05:46:48;11.15;;;7.57;;
71296;SDS011;59082;50.658;4.608;2022-08-16T05:49:14;12.73;;;7.60;;
71296;SDS011;59082;50.658;4.608;2022-08-16T05:51:44;11.75;;;7.20;;
71296;SDS011;59082;50.658;4.608;2022-08-16T05:54:11;8.13;;;6.67;;
71296;SDS011;59082;50.658;4.608;2022-08-16T05:56:39;10.23;;;7.70;;
71296;SDS011;59082;50.658;4.608;2022-08-16T05:59:05;7.20;;;5.78;;
71296;SDS011;59082;50.658;4.608;2022-08-16T06:01:31;9.13;;;6.63;;
71296;SDS011;59082;50.658;4.608;2022-08-16T06:03:57;8.23;;;6.50;;
71296;SDS011;59082;50.658;4.608;2022-08-16T06:06:22;13.77;;;7.30;;
71296;SDS011;59082;50.658;4.608;2022-08-16T06:08:47;8.55;;;6.38;;
71296;SDS011;59082;50.658;4.608;2022-08-16T06:11:13;10.90;;;6.63;;
71296;SDS011;59082;50.658;4.608;2022-08-16T06:13:38;7.87;;;7.03;;
71296;SDS011;59082;50.658;4.608;2022-08-16T06:16:06;7.82;;;7.03;;
71296;SDS011;59082;50.658;4.608;2022-08-16T06:18:32;11.07;;;7.53;;
71296;SDS011;59082;50.658;4.608;2022-08-16T06:20:57;9.32;;;6.25;;
71296;SDS011;59082;50.658;4.608;2022-08-16T06:23:23;8.88;;;6.63;;
71296;SDS011;59082;50.658;4.608;2022-08-16T06:25:50;12.73;;;6.60;;
71296;SDS011;59082;50.658;4.608;2022-08-16T06:28:16;9.85;;;6.53;;
71296;SDS011;59082;50.658;4.608;2022-08-16T06:30:42;10.30;;;8.00;;
71296;SDS011;59082;50.658;4.608;2022-08-16T06:33:08;9.50;;;7.17;;
71296;SDS011;59082;50.658;4.608;2022-08-16T06:35:34;7.95;;;7.15;;
71296;SDS011;59082;50.658;4.608;2022-08-16T06:38:01;9.57;;;7.20;;
71296;SDS011;59082;50.658;4.608;2022-08-16T06:40:27;8.43;;;6.78;;
71296;SDS011;59082;50.658;4.608;2022-08-16T06:42:53;7.67;;;6.97;;
71296;SDS011;59082;50.658;4.608;2022-08-16T06:45:20;8.98;;;7.00;;
71296;SDS011;59082;50.658;4.608;2022-08-16T06:47:47;8.38;;;6.30;;
71296;SDS011;59082;50.658;4.608;2022-08-16T06:50:12;7.97;;;6.88;;
71296;SDS011;59082;50.658;4.608;2022-08-16T06:52:38;10.87;;;7.70;;
71296;SDS011;59082;50.658;4.608;2022-08-16T06:55:04;9.27;;;7.00;;
71296;SDS011;59082;50.658;4.608;2022-08-16T06:57:31;7.77;;;6.97;;
71296;SDS011;59082;50.658;4.608;2022-08-16T06:59:57;7.35;;;6.15;;
71296;SDS011;59082;50.658;4.608;2022-08-16T07:02:22;6.78;;;6.07;;
71296;SDS011;59082;50.658;4.608;2022-08-16T07:04:48;7.43;;;6.73;;
71296;SDS011;59082;50.658;4.608;2022-08-16T07:07:13;9.73;;;6.40;;
71296;SDS011;59082;50.658;4.608;2022-08-16T07:09:39;7.73;;;6.13;;
71296;SDS011;59082;50.658;4.608;2022-08-16T07:12:04;6.43;;;5.50;;
71296;SDS011;59082;50.658;4.608;2022-08-16T07:14:30;7.45;;;6.03;;
71296;SDS011;59082;50.658;4.608;2022-08-16T07:16:57;6.57;;;5.10;;
71296;SDS011;59082;50.658;4.608;2022-08-16T07:19:23;7.95;;;5.60;;
71296;SDS011;59082;50.658;4.608;2022-08-16T07:21:48;8.75;;;6.15;;
71296;SDS011;59082;50.658;4.608;2022-08-16T07:24:15;6.10;;;5.50;;
71296;SDS011;59082;50.658;4.608;2022-08-16T07:26:41;9.98;;;6.03;;
71296;SDS011;59082;50.658;4.608;2022-08-16T07:29:07;7.70;;;5.40;;
71296;SDS011;59082;50.658;4.608;2022-08-16T07:31:32;9.37;;;5.70;;
71296;SDS011;59082;50.658;4.608;2022-08-16T07:33:58;5.97;;;4.93;;
71296;SDS011;59082;50.658;4.608;2022-08-16T07:36:24;8.60;;;5.43;;
71296;SDS011;59082;50.658;4.608;2022-08-16T07:38:50;5.22;;;4.68;;
71296;SDS011;59082;50.658;4.608;2022-08-16T07:41:16;7.07;;;5.40;;
71296;SDS011;59082;50.658;4.608;2022-08-16T07:43:42;10.70;;;5.35;;
71296;SDS011;59082;50.658;4.608;2022-08-16T07:46:08;7.25;;;5.20;;
71296;SDS011;59082;50.658;4.608;2022-08-16T07:48:33;5.80;;;5.30;;
71296;SDS011;59082;50.658;4.608;2022-08-16T07:50:59;6.15;;;4.65;;
71296;SDS011;59082;50.658;4.608;2022-08-16T07:53:30;6.07;;;5.10;;
71296;SDS011;59082;50.658;4.608;2022-08-16T07:55:58;8.43;;;4.47;;
71296;SDS011;59082;50.658;4.608;2022-08-16T07:58:24;7.30;;;4.60;;
71296;SDS011;59082;50.658;4.608;2022-08-16T08:00:50;8.88;;;4.82;;
71296;SDS011;59082;50.658;4.608;2022-08-16T08:03:16;5.05;;;4.55;;
71296;SDS011;59082;50.658;4.608;2022-08-16T08:05:42;7.10;;;4.70;;
71296;SDS011;59082;50.658;4.608;2022-08-16T08:08:08;6.13;;;4.63;;
71296;SDS011;59082;50.658;4.608;2022-08-16T08:10:33;6.80;;;4.37;;
71296;SDS011;59082;50.658;4.608;2022-08-16T08:12:59;7.95;;;4.47;;
71296;SDS011;59082;50.658;4.608;2022-08-16T08:15:24;6.57;;;4.87;;
71296;SDS011;59082;50.658;4.608;2022-08-16T08:17:51;6.35;;;4.22;;
71296;SDS011;59082;50.658;4.608;2022-08-16T08:20:18;8.33;;;5.83;;
71296;SDS011;59082;50.658;4.608;2022-08-16T08:22:46;7.00;;;4.30;;
71296;SDS011;59082;50.658;4.608;2022-08-16T08:25:13;5.63;;;4.47;;
71296;SDS011;59082;50.658;4.608;2022-08-16T08:27:39;7.00;;;4.80;;
71296;SDS011;59082;50.658;4.608;2022-08-16T08:30:04;7.30;;;4.43;;
71296;SDS011;59082;50.658;4.608;2022-08-16T08:32:30;7.60;;;4.53;;
71296;SDS011;59082;50.658;4.608;2022-08-16T08:34:57;7.17;;;4.70;;
71296;SDS011;59082;50.658;4.608;2022-08-16T08:37:24;6.65;;;4.85;;
71296;SDS011;59082;50.658;4.608;2022-08-16T08:39:51;5.88;;;4.78;;
71296;SDS011;59082;50.658;4.608;2022-08-16T08:42:16;5.87;;;4.63;;
71296;SDS011;59082;50.658;4.608;2022-08-16T08:44:41;5.95;;;4.80;;
71296;SDS011;59082;50.658;4.608;2022-08-16T08:47:07;6.90;;;4.70;;
71296;SDS011;59082;50.658;4.608;2022-08-16T08:49:33;6.73;;;4.33;;
71296;SDS011;59082;50.658;4.608;2022-08-16T08:52:00;8.20;;;5.03;;
71296;SDS011;59082;50.658;4.608;2022-08-16T08:54:26;8.82;;;4.82;;
71296;SDS011;59082;50.658;4.608;2022-08-16T08:56:52;7.77;;;4.70;;
71296;SDS011;59082;50.658;4.608;2022-08-16T08:59:18;8.18;;;4.70;;
71296;SDS011;59082;50.658;4.608;2022-08-16T09:01:44;7.60;;;4.80;;
71296;SDS011;59082;50.658;4.608;2022-08-16T09:04:11;6.47;;;4.22;;
71296;SDS011;59082;50.658;4.608;2022-08-16T09:06:37;9.30;;;4.47;;
71296;SDS011;59082;50.658;4.608;2022-08-16T09:09:03;7.60;;;4.20;;
71296;SDS011;59082;50.658;4.608;2022-08-16T09:11:29;6.38;;;4.28;;
71296;SDS011;59082;50.658;4.608;2022-08-16T09:13:54;6.77;;;4.50;;
71296;SDS011;59082;50.658;4.608;2022-08-16T09:16:20;5.43;;;4.43;;
71296;SDS011;59082;50.658;4.608;2022-08-16T09:18:45;4.73;;;4.30;;
71296;SDS011;59082;50.658;4.608;2022-08-16T09:21:11;5.47;;;4.77;;
71296;SDS011;59082;50.658;4.608;2022-08-16T09:23:37;6.28;;;4.03;;
71296;SDS011;59082;50.658;4.608;2022-08-16T09:26:04;7.60;;;4.37;;
71296;SDS011;59082;50.658;4.608;2022-08-16T09:28:32;8.32;;;3.80;;
71296;SDS011;59082;50.658;4.608;2022-08-16T09:30:58;6.35;;;4.35;;
71296;SDS011;59082;50.658;4.608;2022-08-16T09:33:23;5.33;;;4.00;;
71296;SDS011;59082;50.658;4.608;2022-08-16T09:35:49;5.43;;;4.30;;
71296;SDS011;59082;50.658;4.608;2022-08-16T09:38:15;4.85;;;4.10;;
71296;SDS011;59082;50.658;4.608;2022-08-16T09:40:41;5.67;;;4.10;;
71296;SDS011;59082;50.658;4.608;2022-08-16T09:43:11;7.22;;;4.00;;
71296;SDS011;59082;50.658;4.608;2022-08-16T09:45:38;4.78;;;3.75;;
71296;SDS011;59082;50.658;4.608;2022-08-16T09:48:06;4.83;;;4.00;;
71296;SDS011;59082;50.658;4.608;2022-08-16T09:50:33;6.43;;;4.55;;
71296;SDS011;59082;50.658;4.608;2022-08-16T09:53:00;4.78;;;3.95;;
71296;SDS011;59082;50.658;4.608;2022-08-16T09:55:27;4.75;;;4.30;;
71296;SDS011;59082;50.658;4.608;2022-08-16T09:57:52;6.80;;;4.70;;
71296;SDS011;59082;50.658;4.608;2022-08-16T10:00:18;6.40;;;4.23;;
71296;SDS011;59082;50.658;4.608;2022-08-16T10:02:44;5.85;;;4.35;;
71296;SDS011;59082;50.658;4.608;2022-08-16T10:05:11;6.10;;;4.03;;
71296;SDS011;59082;50.658;4.608;2022-08-16T10:07:37;5.03;;;4.10;;
71296;SDS011;59082;50.658;4.608;2022-08-16T10:10:03;5.00;;;3.80;;
71296;SDS011;59082;50.658;4.608;2022-08-16T10:12:29;6.07;;;4.18;;
71296;SDS011;59082;50.658;4.608;2022-08-16T10:15:14;6.73;;;4.27;;
71296;SDS011;59082;50.658;4.608;2022-08-16T10:17:43;6.45;;;4.63;;
71296;SDS011;59082;50.658;4.608;2022-08-16T10:20:10;6.57;;;4.53;;
71296;SDS011;59082;50.658;4.608;2022-08-16T10:22:36;5.80;;;4.40;;
71296;SDS011;59082;50.658;4.608;2022-08-16T10:25:03;8.57;;;4.07;;
71296;SDS011;59082;50.658;4.608;2022-08-16T10:27:30;10.37;;;4.47;;
71296;SDS011;59082;50.658;4.608;2022-08-16T10:29:56;4.93;;;4.22;;
71296;SDS011;59082;50.658;4.608;2022-08-16T10:32:22;8.00;;;4.50;;
71296;SDS011;59082;50.658;4.608;2022-08-16T10:34:47;4.95;;;4.28;;
71296;SDS011;59082;50.658;4.608;2022-08-16T10:37:13;6.57;;;4.07;;
71296;SDS011;59082;50.658;4.608;2022-08-16T10:39:38;5.30;;;3.70;;
71296;SDS011;59082;50.658;4.608;2022-08-16T10:42:04;4.18;;;3.55;;
71296;SDS011;59082;50.658;4.608;2022-08-16T10:44:30;4.13;;;3.70;;
71296;SDS011;59082;50.658;4.608;2022-08-16T10:46:56;5.23;;;4.10;;
71296;SDS011;59082;50.658;4.608;2022-08-16T10:49:21;6.72;;;4.03;;
71296;SDS011;59082;50.658;4.608;2022-08-16T10:51:47;3.73;;;3.43;;
71296;SDS011;59082;50.658;4.608;2022-08-16T10:54:12;4.23;;;3.73;;
71296;SDS011;59082;50.658;4.608;2022-08-16T10:56:38;7.55;;;4.03;;
71296;SDS011;59082;50.658;4.608;2022-08-16T10:59:04;5.00;;;3.50;;
71296;SDS011;59082;50.658;4.608;2022-08-16T11:01:30;5.97;;;3.60;;
71296;SDS011;59082;50.658;4.608;2022-08-16T11:03:56;4.97;;;3.40;;
71296;SDS011;59082;50.658;4.608;2022-08-16T11:06:21;4.43;;;3.70;;
71296;SDS011;59082;50.658;4.608;2022-08-16T11:08:47;5.25;;;3.40;;
71296;SDS011;59082;50.658;4.608;2022-08-16T11:11:13;4.87;;;3.73;;
71296;SDS011;59082;50.658;4.608;2022-08-16T11:13:40;4.82;;;3.58;;
71296;SDS011;59082;50.658;4.608;2022-08-16T11:16:07;4.47;;;3.40;;
71296;SDS011;59082;50.658;4.608;2022-08-16T11:18:33;3.65;;;2.58;;
71296;SDS011;59082;50.658;4.608;2022-08-16T11:20:59;3.60;;;3.10;;
71296;SDS011;59082;50.658;4.608;2022-08-16T11:23:25;5.60;;;2.88;;
71296;SDS011;59082;50.658;4.608;2022-08-16T11:25:52;4.97;;;2.77;;
71296;SDS011;59082;50.658;4.608;2022-08-16T11:28:19;4.53;;;2.80;;
71296;SDS011;59082;50.658;4.608;2022-08-16T11:30:45;3.72;;;2.67;;
71296;SDS011;59082;50.658;4.608;2022-08-16T11:33:11;5.40;;;3.20;;
71296;SDS011;59082;50.658;4.608;2022-08-16T11:35:37;3.60;;;2.83;;
71296;SDS011;59082;50.658;4.608;2022-08-16T11:38:07;6.85;;;3.40;;
71296;SDS011;59082;50.658;4.608;2022-08-16T11:40:39;4.55;;;3.90;;
71296;SDS011;59082;50.658;4.608;2022-08-16T11:43:06;4.05;;;3.15;;
71296;SDS011;59082;50.658;4.608;2022-08-16T11:45:32;4.03;;;3.50;;
71296;SDS011;59082;50.658;4.608;2022-08-16T11:47:59;3.22;;;2.92;;
71296;SDS011;59082;50.658;4.608;2022-08-16T11:50:25;4.82;;;3.28;;
71296;SDS011;59082;50.658;4.608;2022-08-16T11:52:51;7.07;;;2.88;;
71296;SDS011;59082;50.658;4.608;2022-08-16T11:55:17;5.93;;;3.13;;
71296;SDS011;59082;50.658;4.608;2022-08-16T11:57:43;3.47;;;2.92;;
71296;SDS011;59082;50.658;4.608;2022-08-16T12:00:10;4.47;;;2.60;;
71296;SDS011;59082;50.658;4.608;2022-08-16T12:02:39;3.33;;;2.53;;
71296;SDS011;59082;50.658;4.608;2022-08-16T12:05:05;5.18;;;2.92;;
71296;SDS011;59082;50.658;4.608;2022-08-16T12:07:33;3.22;;;2.63;;
71296;SDS011;59082;50.658;4.608;2022-08-16T12:09:59;6.47;;;3.33;;
71296;SDS011;59082;50.658;4.608;2022-08-16T12:12:25;3.90;;;2.87;;
71296;SDS011;59082;50.658;4.608;2022-08-16T12:14:51;5.25;;;3.33;;
71296;SDS011;59082;50.658;4.608;2022-08-16T12:17:17;7.80;;;3.87;;
71296;SDS011;59082;50.658;4.608;2022-08-16T12:19:43;5.70;;;4.28;;
71296;SDS011;59082;50.658;4.608;2022-08-16T12:22:09;5.35;;;3.85;;
71296;SDS011;59082;50.658;4.608;2022-08-16T12:24:35;3.90;;;3.30;;
71296;SDS011;59082;50.658;4.608;2022-08-16T12:27:01;5.65;;;3.05;;
71296;SDS011;59082;50.658;4.608;2022-08-16T12:29:26;3.93;;;2.77;;
71296;SDS011;59082;50.658;4.608;2022-08-16T12:31:53;3.85;;;2.78;;
71296;SDS011;59082;50.658;4.608;2022-08-16T12:34:19;4.90;;;2.95;;
71296;SDS011;59082;50.658;4.608;2022-08-16T12:36:44;5.63;;;3.30;;
71296;SDS011;59082;50.658;4.608;2022-08-16T12:39:10;5.93;;;2.90;;
71296;SDS011;59082;50.658;4.608;2022-08-16T12:41:37;4.50;;;3.22;;
71296;SDS011;59082;50.658;4.608;2022-08-16T12:44:04;4.47;;;2.65;;
71296;SDS011;59082;50.658;4.608;2022-08-16T12:46:30;5.22;;;2.80;;
71296;SDS011;59082;50.658;4.608;2022-08-16T12:48:58;5.55;;;2.90;;
71296;SDS011;59082;50.658;4.608;2022-08-16T12:51:34;2.93;;;2.63;;
71296;SDS011;59082;50.658;4.608;2022-08-16T12:54:02;4.68;;;2.95;;
71296;SDS011;59082;50.658;4.608;2022-08-16T12:56:31;4.03;;;3.05;;
71296;SDS011;59082;50.658;4.608;2022-08-16T12:58:59;4.53;;;2.92;;
71296;SDS011;59082;50.658;4.608;2022-08-16T13:01:28;5.45;;;2.92;;
71296;SDS011;59082;50.658;4.608;2022-08-16T13:03:56;3.60;;;3.00;;
71296;SDS011;59082;50.658;4.608;2022-08-16T13:06:23;3.63;;;3.22;;
71296;SDS011;59082;50.658;4.608;2022-08-16T13:08:49;5.18;;;3.40;;
71296;SDS011;59082;50.658;4.608;2022-08-16T13:11:17;5.13;;;3.33;;
71296;SDS011;59082;50.658;4.608;2022-08-16T13:13:46;3.85;;;3.42;;
71296;SDS011;59082;50.658;4.608;2022-08-16T13:16:12;4.23;;;3.63;;
71296;SDS011;59082;50.658;4.608;2022-08-16T13:18:37;4.20;;;3.80;;
71296;SDS011;59082;50.658;4.608;2022-08-16T13:21:03;5.57;;;3.47;;
71296;SDS011;59082;50.658;4.608;2022-08-16T13:23:30;4.32;;;3.92;;
71296;SDS011;59082;50.658;4.608;2022-08-16T13:25:57;6.45;;;3.42;;
71296;SDS011;59082;50.658;4.608;2022-08-16T13:28:22;3.97;;;3.20;;
71296;SDS011;59082;50.658;4.608;2022-08-16T13:30:49;3.57;;;2.70;;
71296;SDS011;59082;50.658;4.608;2022-08-16T13:33:19;4.75;;;3.03;;
71296;SDS011;59082;50.658;4.608;2022-08-16T13:35:49;3.53;;;3.03;;
71296;SDS011;59082;50.658;4.608;2022-08-16T13:38:17;3.90;;;2.43;;
71296;SDS011;59082;50.658;4.608;2022-08-16T13:40:43;3.40;;;1.80;;
71296;SDS011;59082;50.658;4.608;2022-08-16T13:43:09;3.42;;;2.20;;
71296;SDS011;59082;50.658;4.608;2022-08-16T13:45:34;3.67;;;2.20;;
71296;SDS011;59082;50.658;4.608;2022-08-16T13:48:00;3.80;;;2.40;;
71296;SDS011;59082;50.658;4.608;2022-08-16T13:50:27;6.03;;;2.40;;
71296;SDS011;59082;50.658;4.608;2022-08-16T13:52:53;5.15;;;2.70;;
71296;SDS011;59082;50.658;4.608;2022-08-16T13:55:19;3.38;;;2.65;;
71296;SDS011;59082;50.658;4.608;2022-08-16T13:57:46;4.18;;;2.83;;
71296;SDS011;59082;50.658;4.608;2022-08-16T14:00:11;3.00;;;2.70;;
71296;SDS011;59082;50.658;4.608;2022-08-16T14:02:37;4.60;;;2.72;;
71296;SDS011;59082;50.658;4.608;2022-08-16T14:05:03;5.77;;;3.57;;
71296;SDS011;59082;50.658;4.608;2022-08-16T14:07:30;3.70;;;3.40;;
71296;SDS011;59082;50.658;4.608;2022-08-16T14:09:55;4.43;;;3.00;;
71296;SDS011;59082;50.658;4.608;2022-08-16T14:14:48;5.10;;;2.80;;
71296;SDS011;59082;50.658;4.608;2022-08-16T14:17:15;5.22;;;3.10;;
71296;SDS011;59082;50.658;4.608;2022-08-16T14:19:41;5.80;;;3.55;;
71296;SDS011;59082;50.658;4.608;2022-08-16T14:22:07;5.00;;;3.45;;
71296;SDS011;59082;50.658;4.608;2022-08-16T14:24:33;4.88;;;3.45;;
71296;SDS011;59082;50.658;4.608;2022-08-16T14:27:00;3.63;;;3.33;;
71296;SDS011;59082;50.658;4.608;2022-08-16T14:29:26;5.75;;;3.67;;
71296;SDS011;59082;50.658;4.608;2022-08-16T14:31:54;5.53;;;3.90;;
71296;SDS011;59082;50.658;4.608;2022-08-16T14:34:22;4.88;;;3.67;;
71296;SDS011;59082;50.658;4.608;2022-08-16T14:36:47;4.18;;;3.72;;
71296;SDS011;59082;50.658;4.608;2022-08-16T14:39:12;5.43;;;4.13;;
71296;SDS011;59082;50.658;4.608;2022-08-16T14:41:38;6.10;;;3.57;;
71296;SDS011;59082;50.658;4.608;2022-08-16T14:44:03;5.70;;;3.43;;
71296;SDS011;59082;50.658;4.608;2022-08-16T14:46:29;4.50;;;4.13;;
71296;SDS011;59082;50.658;4.608;2022-08-16T14:48:55;4.53;;;4.13;;